Time;durP1;ratioP1;P1;durP2;ratioP2;P2;SDS_P1;SDS_P2;PMS_P1;PMS_P2;Temp;Humidity;BMP_temperature;BMP_pressure;BME280_temperature;BME280_humidity;BME280_pressure;Samples;Min_cycle;Max_cycle;Signal;HPM_P1;HPM_P2
2024/02/13 00:02:04;;;;;;;10.93;4.68;;;;;;;;;;6209241;28;20053;-78
2024/02/13 00:05:08;;;;;;;8.48;4.60;;;;;;;;;;6214096;28;20046;-78
2024/02/13 00:08:12;;;;;;;9.05;4.72;;;;;;;;;;6231346;28;20037;-77
2024/02/13 00:11:14;;;;;;;7.57;3.75;;;;;;;;;;6213517;28;20065;-80
2024/02/13 00:14:17;;;;;;;10.57;5.50;;;;;;;;;;6239793;28;20057;-80
2024/02/13 00:17:19;;;;;;;8.45;4.10;;;;;;;;;;6195524;28;20200;-81
2024/02/13 00:20:20;;;;;;;7.32;4.10;;;;;;;;;;6209089;28;20623;-81
2024/02/13 00:23:22;;;;;;;12.57;4.28;;;;;;;;;;6223381;28;20032;-78
2024/02/13 00:26:24;;;;;;;9.13;4.22;;;;;;;;;;6233799;28;20058;-78
2024/02/13 00:29:27;;;;;;;13.50;5.10;;;;;;;;;;6242781;28;20046;-79
2024/02/13 00:32:29;;;;;;;9.73;4.72;;;;;;;;;;6212857;28;20060;-79
2024/02/13 00:35:31;;;;;;;12.50;5.20;;;;;;;;;;6230374;28;20037;-77
2024/02/13 00:38:33;;;;;;;7.38;4.22;;;;;;;;;;6234794;28;20029;-80
2024/02/13 00:41:35;;;;;;;11.02;4.35;;;;;;;;;;6226747;28;20076;-78
2024/02/13 00:44:38;;;;;;;11.75;4.93;;;;;;;;;;6226283;28;20060;-80
2024/02/13 00:47:40;;;;;;;;;;;;;;;;;;6229864;28;20489;-78
2024/02/13 00:50:44;;;;;;;10.90;4.90;;;;;;;;;;6200725;28;20311;-78
2024/02/13 00:53:46;;;;;;;10.52;5.28;;;;;;;;;;6221354;28;20141;-81
2024/02/13 00:56:48;;;;;;;10.10;5.35;;;;;;;;;;6197446;28;20053;-82
2024/02/13 00:59:50;;;;;;;11.75;4.57;;;;;;;;;;6217966;28;20069;-80
2024/02/13 01:02:52;;;;;;;9.50;4.47;;;;;;;;;;6211330;28;20053;-80
2024/02/13 01:05:54;;;;;;;9.90;5.38;;;;;;;;;;6224676;28;20058;-78
2024/02/13 01:08:56;;;;;;;11.95;5.45;;;;;;;;;;6219730;28;21321;-79
2024/02/13 01:11:58;;;;;;;9.20;4.80;;;;;;;;;;6210779;28;20382;-80
2024/02/13 01:14:59;;;;;;;10.93;5.25;;;;;;;;;;6213388;28;20066;-79
2024/02/13 01:18:01;;;;;;;14.77;4.88;;;;;;;;;;6213174;28;20055;-82
2024/02/13 01:21:05;;;;;;;9.07;5.28;;;;;;;;;;6212181;28;20825;-79
2024/02/13 01:24:07;;;;;;;9.82;5.07;;;;;;;;;;6212157;28;20061;-82
2024/02/13 01:27:09;;;;;;;11.00;5.18;;;;;;;;;;6203347;28;20050;-77
2024/02/13 01:30:13;;;;;;;10.10;5.28;;;;;;;;;;6233556;28;20029;-78
2024/02/13 01:33:15;;;;;;;10.63;4.85;;;;;;;;;;6233656;28;20050;-77
2024/02/13 01:36:20;;;;;;;8.50;4.72;;;;;;;;;;6218633;28;20058;-79
2024/02/13 01:39:24;;;;;;;9.80;5.00;;;;;;;;;;6209538;28;20107;-81
2024/02/13 01:42:26;;;;;;;;;;;;;;;;;;6206564;28;20380;-80
2024/02/13 01:45:28;;;;;;;5.97;3.70;;;;;;;;;;6210968;28;19930;-82
2024/02/13 01:48:30;;;;;;;9.07;4.07;;;;;;;;;;6206330;28;20042;-82
2024/02/13 01:51:34;;;;;;;10.30;4.73;;;;;;;;;;6226767;28;20038;-82
2024/02/13 01:54:36;;;;;;;9.88;5.53;;;;;;;;;;6208494;28;20483;-78
2024/02/13 01:57:40;;;;;;;11.27;5.53;;;;;;;;;;6208309;28;20053;-82
2024/02/13 02:00:43;;;;;;;10.40;5.45;;;;;;;;;;6205067;28;20517;-82
2024/02/13 02:03:45;;;;;;;8.95;4.90;;;;;;;;;;6204873;28;20056;-81
2024/02/13 02:06:49;;;;;;;15.57;5.03;;;;;;;;;;6213173;28;20075;-79
2024/02/13 02:09:51;;;;;;;8.00;4.60;;;;;;;;;;6206745;28;20421;-81
2024/02/13 02:12:53;;;;;;;14.07;5.60;;;;;;;;;;6179249;28;20065;-79
2024/02/13 02:15:56;;;;;;;11.50;5.45;;;;;;;;;;6182154;28;20046;-82
2024/02/13 02:18:58;;;;;;;12.10;5.93;;;;;;;;;;6207535;28;20053;-81
2024/02/13 02:22:00;;;;;;;11.88;5.70;;;;;;;;;;6210877;28;20042;-78
2024/02/13 02:25:06;;;;;;;11.25;5.78;;;;;;;;;;6223992;28;20050;-79
2024/02/13 02:28:08;;;;;;;9.93;5.45;;;;;;;;;;6220810;28;20054;-78
2024/02/13 02:31:14;;;;;;;14.05;5.60;;;;;;;;;;6217505;28;20060;-82
2024/02/13 02:34:18;;;;;;;10.20;5.85;;;;;;;;;;6203641;28;20117;-81
2024/02/13 02:37:20;;;;;;;9.93;4.80;;;;;;;;;;6218635;28;20053;-79
2024/02/13 02:40:22;;;;;;;11.23;5.20;;;;;;;;;;6205555;28;20042;-82
2024/02/13 02:43:24;;;;;;;12.60;5.80;;;;;;;;;;6217297;28;20046;-80
2024/02/13 02:46:25;;;;;;;8.98;5.00;;;;;;;;;;6211472;28;20074;-79
2024/02/13 02:49:27;;;;;;;10.50;5.45;;;;;;;;;;6203574;28;20120;-82
2024/02/13 02:52:29;;;;;;;14.10;5.10;;;;;;;;;;6210276;28;20103;-81
2024/02/13 02:55:31;;;;;;;10.65;5.47;;;;;;;;;;6216210;28;20058;-81
2024/02/13 02:58:33;;;;;;;10.60;5.35;;;;;;;;;;6207299;28;20038;-81
2024/02/13 03:01:36;;;;;;;11.73;5.85;;;;;;;;;;6216396;28;20057;-80
2024/02/13 03:04:38;;;;;;;11.65;5.35;;;;;;;;;;6190912;28;20042;-77
2024/02/13 03:07:40;;;;;;;13.35;5.55;;;;;;;;;;6208298;28;20077;-79
2024/02/13 03:10:41;;;;;;;13.50;5.70;;;;;;;;;;6207932;28;20045;-82
2024/02/13 03:13:43;;;;;;;12.63;5.32;;;;;;;;;;6199147;28;20050;-81
2024/02/13 03:16:47;;;;;;;10.18;5.55;;;;;;;;;;6201314;28;20523;-78
2024/02/13 03:19:49;;;;;;;12.45;5.13;;;;;;;;;;6221011;28;20052;-79
2024/02/13 03:22:51;;;;;;;10.45;5.88;;;;;;;;;;6208889;28;20049;-77
2024/02/13 03:25:52;;;;;;;12.95;6.00;;;;;;;;;;6203756;28;20393;-84
2024/02/13 03:28:54;;;;;;;11.00;5.05;;;;;;;;;;6186073;28;20049;-82
2024/02/13 03:31:55;;;;;;;9.95;5.10;;;;;;;;;;6207078;28;20050;-79
2024/02/13 03:34:57;;;;;;;11.07;5.82;;;;;;;;;;6198253;28;20053;-79
2024/02/13 03:37:59;;;;;;;12.65;5.05;;;;;;;;;;6213848;28;20034;-76
2024/02/13 03:41:02;;;;;;;11.00;5.25;;;;;;;;;;6234847;28;20061;-78
2024/02/13 03:44:07;;;;;;;11.13;5.22;;;;;;;;;;6209376;28;20042;-81
2024/02/13 03:47:09;;;;;;;11.10;5.05;;;;;;;;;;6204260;28;20129;-82
2024/02/13 03:50:11;;;;;;;10.32;5.05;;;;;;;;;;6211000;28;20054;-80
2024/02/13 03:53:13;;;;;;;10.10;4.85;;;;;;;;;;6208282;28;20142;-81
2024/02/13 03:56:15;;;;;;;13.25;5.20;;;;;;;;;;6199810;28;20046;-81
2024/02/13 03:59:17;;;;;;;11.18;5.43;;;;;;;;;;6201907;28;20590;-83
2024/02/13 04:02:19;;;;;;;13.43;5.88;;;;;;;;;;6181004;28;20077;-81
2024/02/13 04:05:21;;;;;;;12.63;6.13;;;;;;;;;;6185826;28;20505;-78
2024/02/13 04:08:23;;;;;;;7.82;4.53;;;;;;;;;;6208115;28;20046;-79
2024/02/13 04:11:25;;;;;;;9.05;4.90;;;;;;;;;;6199770;28;20104;-79
2024/02/13 04:14:27;;;;;;;10.05;5.00;;;;;;;;;;6202898;28;20539;-79
2024/02/13 04:17:29;;;;;;;10.70;4.90;;;;;;;;;;6188636;28;20054;-80
2024/02/13 04:20:30;;;;;;;11.48;5.25;;;;;;;;;;6202129;28;20518;-81
2024/02/13 04:23:32;;;;;;;12.35;5.72;;;;;;;;;;6206786;28;20050;-80
2024/02/13 04:26:43;;;;;;;8.80;4.93;;;;;;;;;;6206173;28;20068;-80
2024/02/13 04:29:45;;;;;;;10.88;5.43;;;;;;;;;;6204820;28;20555;-82
2024/02/13 04:32:47;;;;;;;8.50;5.22;;;;;;;;;;6216555;28;20393;-80
2024/02/13 04:35:49;;;;;;;10.45;4.50;;;;;;;;;;6221596;28;20065;-81
2024/02/13 04:38:51;;;;;;;16.63;7.40;;;;;;;;;;6212991;28;20450;-79
2024/02/13 04:41:52;;;;;;;24.30;11.93;;;;;;;;;;6219913;28;20403;-79
2024/02/13 04:44:55;;;;;;;20.83;11.70;;;;;;;;;;6205154;28;20816;-81
2024/02/13 04:47:58;;;;;;;19.98;9.65;;;;;;;;;;6190315;28;20089;-78
2024/02/13 04:51:01;;;;;;;17.63;7.90;;;;;;;;;;6196729;28;20072;-80
2024/02/13 04:54:04;;;;;;;;;;;;;;;;;;6212364;28;20050;-79
2024/02/13 04:57:06;;;;;;;14.23;6.40;;;;;;;;;;6191679;28;20142;-80
2024/02/13 05:00:24;;;;;;;12.68;5.75;;;;;;;;;;6210018;28;20437;-80
2024/02/13 05:03:27;;;;;;;14.02;6.20;;;;;;;;;;6208950;28;20385;-80
2024/02/13 05:09:50;;;;;;;11.65;5.07;;;;;;;;;;6186660;28;20043;-82
2024/02/13 05:12:53;;;;;;;13.15;5.18;;;;;;;;;;6183675;28;20049;-79
2024/02/13 05:15:54;;;;;;;12.20;5.93;;;;;;;;;;6208770;28;20053;-82
2024/02/13 05:18:56;;;;;;;12.10;6.22;;;;;;;;;;6208011;28;20511;-81
2024/02/13 05:21:59;;;;;;;9.87;5.47;;;;;;;;;;6214773;28;20092;-82
2024/02/13 05:25:01;;;;;;;12.05;4.85;;;;;;;;;;6209600;28;20047;-79
2024/02/13 05:28:03;;;;;;;8.95;4.70;;;;;;;;;;6209229;28;20050;-81
2024/02/13 05:31:05;;;;;;;15.75;5.78;;;;;;;;;;6202524;28;20049;-82
2024/02/13 05:34:08;;;;;;;14.82;5.57;;;;;;;;;;6209130;28;20077;-81
2024/02/13 05:37:10;;;;;;;;;;;;;;;;;;6225938;28;20433;-80
2024/02/13 05:40:12;;;;;;;14.02;6.22;;;;;;;;;;6207912;28;19928;-78
2024/02/13 05:43:14;;;;;;;14.43;6.18;;;;;;;;;;6220127;28;20428;-81
2024/02/13 05:46:18;;;;;;;11.68;6.10;;;;;;;;;;6212742;28;20053;-75
2024/02/13 05:49:20;;;;;;;14.52;7.38;;;;;;;;;;6232403;28;20060;-76
2024/02/13 05:52:22;;;;;;;15.98;7.68;;;;;;;;;;6224581;28;20045;-79
2024/02/13 05:55:23;;;;;;;25.45;10.60;;;;;;;;;;6201390;28;20101;-78
2024/02/13 05:58:27;;;;;;;26.48;10.23;;;;;;;;;;6217815;28;20054;-81
2024/02/13 06:01:31;;;;;;;24.23;9.80;;;;;;;;;;6206926;28;20093;-79
2024/02/13 06:04:33;;;;;;;27.20;11.03;;;;;;;;;;6207996;28;20054;-82
2024/02/13 06:07:34;;;;;;;28.00;11.45;;;;;;;;;;6188132;28;20042;-81
2024/02/13 06:10:38;;;;;;;26.25;11.43;;;;;;;;;;6207693;28;20050;-80
2024/02/13 06:13:41;;;;;;;25.10;9.00;;;;;;;;;;6201583;28;20097;-80
2024/02/13 06:16:43;;;;;;;19.75;8.73;;;;;;;;;;6205334;28;20045;-83
2024/02/13 06:19:45;;;;;;;19.50;7.75;;;;;;;;;;6205040;28;20046;-83
2024/02/13 06:22:47;;;;;;;19.90;8.45;;;;;;;;;;6215912;28;20131;-82
2024/02/13 06:25:49;;;;;;;18.27;8.45;;;;;;;;;;6206397;28;20050;-82
2024/02/13 06:28:51;;;;;;;20.00;7.70;;;;;;;;;;6212783;28;20049;-81
2024/02/13 06:31:55;;;;;;;16.20;7.77;;;;;;;;;;6208994;28;20046;-82
2024/02/13 06:34:56;;;;;;;;;;;;;;;;;;6212510;28;20453;-79
2024/02/13 06:37:59;;;;;;;19.83;10.27;;;;;;;;;;6211613;28;20008;-78
2024/02/13 06:41:05;;;;;;;18.05;8.40;;;;;;;;;;6206194;28;20050;-82
2024/02/13 06:44:07;;;;;;;14.48;8.23;;;;;;;;;;6205308;28;20046;-79
2024/02/13 06:47:08;;;;;;;17.88;8.77;;;;;;;;;;6228243;28;20046;-78
2024/02/13 06:50:12;;;;;;;17.85;8.93;;;;;;;;;;6227082;28;20057;-79
2024/02/13 06:53:15;;;;;;;19.38;8.57;;;;;;;;;;6228293;28;20070;-79
2024/02/13 06:56:17;;;;;;;22.88;8.88;;;;;;;;;;6236392;28;20030;-78
2024/02/13 06:59:19;;;;;;;19.10;8.23;;;;;;;;;;6229276;28;20049;-78
2024/02/13 07:02:21;;;;;;;25.15;10.15;;;;;;;;;;6221731;28;20088;-77
2024/02/13 07:05:24;;;;;;;19.98;8.43;;;;;;;;;;6228318;28;20041;-79
2024/02/13 07:08:26;;;;;;;19.73;8.80;;;;;;;;;;6215988;28;20058;-81
2024/02/13 07:11:28;;;;;;;20.27;8.90;;;;;;;;;;6207994;28;20054;-81
2024/02/13 07:14:31;;;;;;;18.75;7.45;;;;;;;;;;6200071;28;20137;-83
2024/02/13 07:17:34;;;;;;;17.58;8.35;;;;;;;;;;6206148;28;20041;-81
2024/02/13 07:20:54;;;;;;;19.92;8.57;;;;;;;;;;6207725;28;20050;-79
2024/02/13 07:24:04;;;;;;;20.77;8.63;;;;;;;;;;6200845;28;20244;-79
2024/02/13 07:27:07;;;;;;;15.80;6.93;;;;;;;;;;6196447;28;20041;-81
2024/02/13 07:30:11;;;;;;;19.30;7.15;;;;;;;;;;6206968;28;20043;-82
2024/02/13 07:33:13;;;;;;;29.50;10.88;;;;;;;;;;6199226;28;20436;-82
2024/02/13 07:36:16;;;;;;;22.02;9.73;;;;;;;;;;6209155;28;20065;-81
2024/02/13 07:39:18;;;;;;;19.98;9.90;;;;;;;;;;6229912;28;20037;-80
2024/02/13 07:42:20;;;;;;;17.85;9.52;;;;;;;;;;6228683;28;20047;-82
2024/02/13 07:45:22;;;;;;;21.67;11.90;;;;;;;;;;6221123;28;20054;-78
2024/02/13 07:48:24;;;;;;;28.15;9.98;;;;;;;;;;6193507;28;20050;-80
2024/02/13 07:51:26;;;;;;;23.98;9.50;;;;;;;;;;6209517;28;20057;-83
2024/02/13 07:54:28;;;;;;;28.40;11.52;;;;;;;;;;6235016;28;20026;-79
2024/02/13 07:57:32;;;;;;;65.88;27.77;;;;;;;;;;6221817;28;20054;-79
2024/02/13 08:00:36;;;;;;;31.38;14.00;;;;;;;;;;6207188;28;20416;-82
2024/02/13 08:03:38;;;;;;;19.20;10.23;;;;;;;;;;6212791;28;20046;-82
2024/02/13 08:06:39;;;;;;;26.00;9.77;;;;;;;;;;6204069;28;20046;-81
2024/02/13 08:09:41;;;;;;;15.15;8.20;;;;;;;;;;6202136;28;20049;-81
2024/02/13 08:12:45;;;;;;;13.98;6.55;;;;;;;;;;6204939;28;20049;-80
2024/02/13 08:15:49;;;;;;;14.45;6.72;;;;;;;;;;6202110;28;20054;-84
2024/02/13 08:18:51;;;;;;;16.55;6.88;;;;;;;;;;6206906;28;20038;-81
2024/02/13 08:21:53;;;;;;;12.60;5.35;;;;;;;;;;6213827;28;20045;-84
2024/02/13 08:24:55;;;;;;;21.55;8.05;;;;;;;;;;6194628;28;20057;-84
2024/02/13 08:27:59;;;;;;;8.20;4.10;;;;;;;;;;6209193;28;20045;-84
2024/02/13 08:31:01;;;;;;;10.60;5.10;;;;;;;;;;6192535;28;20053;-83
2024/02/13 08:34:03;;;;;;;14.52;5.82;;;;;;;;;;6205758;28;20053;-81
2024/02/13 08:37:05;;;;;;;7.60;3.50;;;;;;;;;;6212877;28;20845;-84
2024/02/13 08:40:08;;;;;;;8.45;4.00;;;;;;;;;;6218210;28;20046;-85
2024/02/13 08:43:10;;;;;;;9.50;4.43;;;;;;;;;;6217038;28;20053;-84
2024/02/13 08:46:13;;;;;;;8.18;5.07;;;;;;;;;;6192569;28;20045;-81
2024/02/13 08:49:15;;;;;;;6.82;3.80;;;;;;;;;;6210092;28;20061;-83
2024/02/13 08:52:19;;;;;;;9.40;4.18;;;;;;;;;;6213721;28;20050;-82
2024/02/13 08:55:21;;;;;;;8.30;4.40;;;;;;;;;;6214576;28;20049;-85
2024/02/13 08:58:23;;;;;;;5.47;3.40;;;;;;;;;;6202940;28;20045;-84
2024/02/13 09:01:24;;;;;;;9.45;4.20;;;;;;;;;;6209868;28;20046;-84
2024/02/13 09:04:26;;;;;;;10.27;6.55;;;;;;;;;;6205098;28;20546;-83
2024/02/13 09:07:28;;;;;;;10.48;6.63;;;;;;;;;;6211639;28;20060;-83
2024/02/13 09:10:30;;;;;;;10.68;8.55;;;;;;;;;;6208774;28;20121;-84
2024/02/13 09:13:31;;;;;;;18.52;10.77;;;;;;;;;;6208794;28;21218;-84
2024/02/13 09:16:34;;;;;;;16.33;9.20;;;;;;;;;;6213453;28;20034;-82
2024/02/13 09:19:40;;;;;;;24.03;12.73;;;;;;;;;;6204785;28;20156;-84
2024/02/13 09:22:46;;;;;;;24.38;14.85;;;;;;;;;;6215187;28;20575;-84
2024/02/13 09:25:49;;;;;;;4.20;2.00;;;;;;;;;;6203606;28;20046;-84
2024/02/13 09:28:51;;;;;;;3.25;2.00;;;;;;;;;;6213032;28;20088;-84
2024/02/13 09:31:54;;;;;;;4.45;2.20;;;;;;;;;;6201682;28;20057;-83
2024/02/13 09:34:55;;;;;;;5.88;2.55;;;;;;;;;;6210080;28;20045;-84
2024/02/13 09:37:58;;;;;;;5.43;2.25;;;;;;;;;;6210572;28;20069;-80
2024/02/13 09:40:59;;;;;;;3.47;2.10;;;;;;;;;;6222617;28;20033;-77
2024/02/13 09:44:02;;;;;;;5.95;3.08;;;;;;;;;;6221894;28;20053;-79
2024/02/13 09:47:04;;;;;;;3.40;2.10;;;;;;;;;;6202776;28;20046;-83
2024/02/13 09:50:12;;;;;;;4.17;1.97;;;;;;;;;;6206873;28;20056;-84
2024/02/13 09:53:28;;;;;;;3.67;2.20;;;;;;;;;;6209970;28;20042;-85
2024/02/13 09:56:31;;;;;;;3.60;2.20;;;;;;;;;;6209890;28;20081;-83
2024/02/13 09:59:33;;;;;;;3.58;2.28;;;;;;;;;;6204788;28;20751;-82
2024/02/13 10:02:39;;;;;;;5.88;2.70;;;;;;;;;;6215488;28;20037;-80
2024/02/13 10:05:41;;;;;;;4.03;2.10;;;;;;;;;;6241349;28;20050;-81
2024/02/13 10:08:49;;;;;;;3.08;1.92;;;;;;;;;;6219455;28;20610;-84
2024/02/13 10:11:51;;;;;;;2.47;1.90;;;;;;;;;;6206743;28;20046;-82
2024/02/13 10:15:00;;;;;;;4.70;2.97;;;;;;;;;;6205883;28;20144;-85
2024/02/13 10:18:03;;;;;;;3.83;1.92;;;;;;;;;;6211377;28;20120;-83
2024/02/13 10:21:04;;;;;;;5.13;2.58;;;;;;;;;;6209492;28;20050;-84
2024/02/13 10:24:11;;;;;;;4.90;2.55;;;;;;;;;;6222027;28;20105;-82
2024/02/13 10:27:14;;;;;;;5.25;2.15;;;;;;;;;;6229466;28;20050;-83
2024/02/13 10:30:23;;;;;;;3.78;2.33;;;;;;;;;;6221188;28;20065;-83
2024/02/13 10:33:25;;;;;;;33.83;11.02;;;;;;;;;;6206495;28;20060;-82
2024/02/13 10:36:27;;;;;;;4.03;2.00;;;;;;;;;;6211453;28;20051;-85
2024/02/13 10:39:32;;;;;;;2.53;1.70;;;;;;;;;;6226705;28;20053;-85
2024/02/13 10:42:37;;;;;;;2.42;1.85;;;;;;;;;;6208047;28;20049;-86
2024/02/13 10:45:39;;;;;;;4.10;1.73;;;;;;;;;;6216727;28;20056;-85
2024/02/13 10:48:49;;;;;;;5.07;2.53;;;;;;;;;;6212611;28;20064;-84
2024/02/13 10:51:53;;;;;;;2.05;1.50;;;;;;;;;;6217797;28;20184;-85
2024/02/13 10:55:03;;;;;;;2.25;1.50;;;;;;;;;;6209582;28;20060;-85
2024/02/13 10:58:06;;;;;;;2.28;1.63;;;;;;;;;;6206813;28;20057;-84
2024/02/13 11:01:23;;;;;;;1.65;1.55;;;;;;;;;;6196308;28;20588;-82
2024/02/13 11:04:27;;;;;;;3.20;1.70;;;;;;;;;;6206979;28;20176;-83
2024/02/13 11:07:29;;;;;;;2.17;1.77;;;;;;;;;;6209722;28;20056;-80
2024/02/13 11:10:34;;;;;;;2.15;1.73;;;;;;;;;;6203359;28;20405;-84
2024/02/13 11:13:36;;;;;;;1.77;1.40;;;;;;;;;;6202009;28;20053;-83
2024/02/13 11:16:38;;;;;;;5.93;2.17;;;;;;;;;;6203816;28;20061;-81
2024/02/13 11:19:42;;;;;;;3.38;1.70;;;;;;;;;;6205522;28;20509;-82
2024/02/13 11:22:52;;;;;;;2.25;1.30;;;;;;;;;;6224656;28;20121;-81
2024/02/13 11:25:59;;;;;;;2.67;1.40;;;;;;;;;;6204848;28;20590;-83
2024/02/13 11:29:11;;;;;;;2.58;1.30;;;;;;;;;;6217497;28;20125;-83
2024/02/13 11:32:25;;;;;;;2.47;1.38;;;;;;;;;;6205150;28;20053;-84
2024/02/13 11:35:29;;;;;;;4.03;1.40;;;;;;;;;;6225359;28;20060;-83
2024/02/13 11:38:32;;;;;;;1.63;1.35;;;;;;;;;;6206370;28;20045;-82
2024/02/13 11:41:34;;;;;;;2.50;1.40;;;;;;;;;;6206416;28;20416;-81
2024/02/13 11:44:40;;;;;;;0.82;0.82;;;;;;;;;;6212807;28;20045;-80
2024/02/13 11:47:42;;;;;;;1.48;1.05;;;;;;;;;;6209565;28;20049;-81
2024/02/13 11:50:44;;;;;;;1.08;0.98;;;;;;;;;;6213525;28;20060;-82
2024/02/13 11:53:46;;;;;;;1.65;0.95;;;;;;;;;;6223367;28;20749;-82
2024/02/13 11:56:48;;;;;;;1.10;1.00;;;;;;;;;;6211602;28;20050;-83
2024/02/13 11:59:57;;;;;;;1.70;0.90;;;;;;;;;;6209083;28;20089;-82
2024/02/13 12:03:01;;;;;;;1.48;0.90;;;;;;;;;;6204123;28;20547;-82
2024/02/13 12:06:05;;;;;;;1.58;0.90;;;;;;;;;;6223816;28;20466;-80
2024/02/13 12:09:09;;;;;;;2.65;1.60;;;;;;;;;;6216131;28;20045;-82
2024/02/13 12:12:13;;;;;;;1.85;1.15;;;;;;;;;;6207124;28;20050;-82
2024/02/13 12:15:20;;;;;;;1.10;1.00;;;;;;;;;;6226828;28;20050;-84
2024/02/13 12:18:22;;;;;;;3.90;1.45;;;;;;;;;;6226664;28;20049;-81
2024/02/13 12:21:25;;;;;;;1.30;1.20;;;;;;;;;;6215545;28;20041;-82
2024/02/13 12:24:32;;;;;;;1.77;1.50;;;;;;;;;;6215084;28;20045;-81
2024/02/13 12:27:35;;;;;;;2.50;1.50;;;;;;;;;;6225932;28;20049;-79
2024/02/13 12:30:37;;;;;;;2.05;1.10;;;;;;;;;;6228046;28;20050;-83
2024/02/13 12:33:40;;;;;;;1.65;1.40;;;;;;;;;;6212091;28;20072;-81
2024/02/13 12:36:42;;;;;;;1.67;0.90;;;;;;;;;;6230190;28;20090;-85
2024/02/13 12:39:45;;;;;;;0.82;0.82;;;;;;;;;;6212749;28;20535;-85
2024/02/13 12:42:47;;;;;;;;;;;;;;;;;;6213217;28;20045;-85
2024/02/13 12:46:10;;;;;;;2.00;1.10;;;;;;;;;;6196985;28;20036;-81
2024/02/13 12:49:12;;;;;;;4.50;1.30;;;;;;;;;;6212994;28;20050;-79
2024/02/13 12:52:16;;;;;;;2.65;1.30;;;;;;;;;;6211675;28;20080;-81
2024/02/13 12:55:22;;;;;;;2.83;0.90;;;;;;;;;;6228901;28;20093;-82
2024/02/13 12:58:23;;;;;;;1.92;1.20;;;;;;;;;;6227689;28;20046;-82
2024/02/13 13:01:26;;;;;;;1.83;0.98;;;;;;;;;;6207209;28;20053;-84
2024/02/13 13:04:28;;;;;;;1.38;1.13;;;;;;;;;;6213568;28;20129;-83
2024/02/13 13:07:31;;;;;;;5.45;1.20;;;;;;;;;;6213675;28;20068;-82
2024/02/13 13:10:33;;;;;;;1.85;1.30;;;;;;;;;;6214827;28;20416;-82
2024/02/13 13:13:38;;;;;;;1.52;1.10;;;;;;;;;;6197944;28;20053;-83
2024/02/13 13:16:40;;;;;;;2.50;1.10;;;;;;;;;;6210424;28;20393;-84
2024/02/13 13:19:43;;;;;;;4.28;1.10;;;;;;;;;;6220347;28;20050;-81
2024/02/13 13:22:47;;;;;;;2.35;1.38;;;;;;;;;;6248849;28;20086;-81
2024/02/13 13:25:51;;;;;;;1.65;1.30;;;;;;;;;;6218597;28;20046;-82
2024/02/13 13:28:54;;;;;;;7.95;1.70;;;;;;;;;;6212527;28;20061;-81
2024/02/13 13:31:59;;;;;;;1.50;1.20;;;;;;;;;;6227535;28;20045;-82
2024/02/13 13:35:02;;;;;;;4.60;1.30;;;;;;;;;;6196109;28;20132;-82
2024/02/13 13:38:04;;;;;;;2.60;1.10;;;;;;;;;;6208330;28;20108;-80
2024/02/13 13:41:07;;;;;;;1.88;0.93;;;;;;;;;;6205642;28;20046;-82
2024/02/13 13:44:10;;;;;;;1.58;1.05;;;;;;;;;;6223272;28;20419;-83
2024/02/13 13:47:12;;;;;;;;;;;;;;;;;;6210713;28;20057;-83
2024/02/13 13:50:17;;;;;;;2.20;1.00;;;;;;;;;;6218322;28;19928;-81
2024/02/13 13:53:21;;;;;;;2.10;1.20;;;;;;;;;;6201623;28;20045;-84
2024/02/13 13:56:23;;;;;;;2.45;1.15;;;;;;;;;;6208320;28;20057;-82
2024/02/13 13:59:25;;;;;;;1.50;1.27;;;;;;;;;;6210058;28;20177;-82
2024/02/13 14:02:27;;;;;;;3.80;1.20;;;;;;;;;;6214533;28;20148;-83
2024/02/13 14:05:33;;;;;;;1.20;1.10;;;;;;;;;;6211782;28;20073;-82
2024/02/13 14:08:38;;;;;;;1.52;1.20;;;;;;;;;;6207988;28;20203;-83
2024/02/13 14:11:40;;;;;;;2.83;1.58;;;;;;;;;;6196769;28;20576;-84
2024/02/13 14:14:42;;;;;;;16.23;9.43;;;;;;;;;;6209412;28;20045;-84
2024/02/13 14:17:44;;;;;;;4.05;2.17;;;;;;;;;;6200564;28;20044;-83
2024/02/13 14:20:46;;;;;;;2.27;1.00;;;;;;;;;;6187939;28;20549;-83
2024/02/13 14:23:53;;;;;;;1.45;1.00;;;;;;;;;;6217210;28;20065;-83
2024/02/13 14:26:55;;;;;;;1.10;0.90;;;;;;;;;;6202198;28;21101;-84
2024/02/13 14:29:58;;;;;;;1.52;0.77;;;;;;;;;;6194047;28;20053;-82
2024/02/13 14:33:05;;;;;;;3.67;0.88;;;;;;;;;;6208883;28;21705;-83
2024/02/13 14:36:08;;;;;;;1.27;0.88;;;;;;;;;;6191676;28;20500;-84
2024/02/13 14:39:16;;;;;;;1.27;0.80;;;;;;;;;;6199893;28;20072;-82
2024/02/13 14:42:19;;;;;;;2.42;0.93;;;;;;;;;;6211827;28;20050;-85
2024/02/13 14:45:20;;;;;;;1.58;0.80;;;;;;;;;;6203686;28;20420;-83
2024/02/13 14:48:22;;;;;;;3.95;1.10;;;;;;;;;;6217808;28;20438;-83
2024/02/13 14:51:24;;;;;;;2.97;0.80;;;;;;;;;;6204183;28;20125;-84
2024/02/13 14:54:27;;;;;;;1.27;0.85;;;;;;;;;;6246377;28;20050;-81
2024/02/13 14:57:31;;;;;;;1.45;0.80;;;;;;;;;;6228411;28;20046;-81
2024/02/13 15:00:33;;;;;;;1.23;0.88;;;;;;;;;;6213274;28;20423;-83
2024/02/13 15:03:35;;;;;;;6.07;1.00;;;;;;;;;;6200392;28;20057;-83
2024/02/13 15:06:38;;;;;;;1.58;1.00;;;;;;;;;;6197175;28;20050;-83
2024/02/13 15:09:40;;;;;;;2.67;1.20;;;;;;;;;;6184354;28;20049;-82
2024/02/13 15:12:42;;;;;;;1.40;0.98;;;;;;;;;;6213081;28;20042;-84
2024/02/13 15:15:47;;;;;;;1.55;1.00;;;;;;;;;;6194217;28;20050;-82
2024/02/13 15:18:51;;;;;;;2.10;0.93;;;;;;;;;;6195743;28;20164;-83
2024/02/13 15:21:53;;;;;;;2.40;0.90;;;;;;;;;;6184795;28;20877;-81
2024/02/13 15:24:57;;;;;;;2.78;1.13;;;;;;;;;;6200778;28;20070;-82
2024/02/13 15:28:03;;;;;;;1.50;0.90;;;;;;;;;;6192075;28;20064;-81
2024/02/13 15:31:05;;;;;;;1.05;0.73;;;;;;;;;;6211268;28;20500;-83
2024/02/13 15:34:07;;;;;;;2.75;1.08;;;;;;;;;;6197900;28;20519;-82
2024/02/13 15:37:10;;;;;;;2.45;0.90;;;;;;;;;;6198102;28;20053;-81
2024/02/13 15:46:58;;;;;;;1.60;1.00;;;;;;;;;;6198320;28;20058;-82
2024/02/13 15:50:06;;;;;;;1.45;1.20;;;;;;;;;;6201374;28;20052;-80
2024/02/13 15:53:08;;;;;;;2.13;1.20;;;;;;;;;;6194403;28;20795;-82
2024/02/13 15:56:10;;;;;;;2.92;1.63;;;;;;;;;;6213329;28;20037;-79
2024/02/13 15:59:12;;;;;;;1.52;1.00;;;;;;;;;;6206552;28;20449;-80
2024/02/13 16:02:17;;;;;;;2.45;1.17;;;;;;;;;;6215200;28;20112;-82
2024/02/13 16:05:21;;;;;;;2.22;1.40;;;;;;;;;;6190813;28;20061;-79
2024/02/13 16:08:24;;;;;;;6.20;2.55;;;;;;;;;;6203360;28;21108;-83
2024/02/13 16:11:29;;;;;;;3.92;1.58;;;;;;;;;;6204218;28;20077;-78
2024/02/13 16:14:31;;;;;;;2.80;1.75;;;;;;;;;;6205410;28;20057;-80
2024/02/13 16:17:34;;;;;;;8.75;4.40;;;;;;;;;;6205633;28;20109;-81
2024/02/13 16:20:37;;;;;;;6.55;1.85;;;;;;;;;;6205969;28;20743;-81
2024/02/13 16:23:41;;;;;;;2.47;1.58;;;;;;;;;;6188146;28;20038;-79
2024/02/13 16:26:43;;;;;;;2.30;1.42;;;;;;;;;;6188675;28;20042;-79
2024/02/13 16:29:45;;;;;;;3.83;1.80;;;;;;;;;;6214127;28;20052;-82
2024/02/13 16:32:47;;;;;;;4.53;2.10;;;;;;;;;;6208676;28;20050;-78
2024/02/13 16:35:49;;;;;;;3.60;1.48;;;;;;;;;;6209203;28;20063;-81
2024/02/13 16:38:51;;;;;;;2.22;1.50;;;;;;;;;;6207821;28;20050;-82
2024/02/13 16:41:53;;;;;;;4.28;2.80;;;;;;;;;;6205161;28;20042;-82
2024/02/13 16:44:55;;;;;;;2.23;1.63;;;;;;;;;;6205888;28;20038;-79
2024/02/13 16:47:58;;;;;;;2.95;1.60;;;;;;;;;;6208183;28;20053;-80
2024/02/13 16:51:00;;;;;;;4.57;2.08;;;;;;;;;;6227447;28;20042;-81
2024/02/13 16:54:04;;;;;;;2.95;1.55;;;;;;;;;;6194120;28;20355;-77
2024/02/13 16:57:05;;;;;;;2.03;1.17;;;;;;;;;;6210037;28;20047;-78
2024/02/13 17:00:10;;;;;;;2.13;1.60;;;;;;;;;;6226374;28;20066;-78
2024/02/13 17:03:13;;;;;;;4.53;2.03;;;;;;;;;;6225136;28;20052;-80
2024/02/13 17:06:15;;;;;;;2.20;1.53;;;;;;;;;;6211250;28;20415;-82
2024/02/13 17:09:16;;;;;;;3.85;1.60;;;;;;;;;;6189647;28;20045;-78
2024/02/13 17:12:20;;;;;;;2.17;1.45;;;;;;;;;;6212823;28;20809;-80
2024/02/13 17:15:21;;;;;;;3.97;1.40;;;;;;;;;;6219958;28;20420;-80
2024/02/13 17:18:23;;;;;;;2.13;1.45;;;;;;;;;;6209632;28;20060;-81
2024/02/13 17:21:25;;;;;;;3.00;1.60;;;;;;;;;;6215993;28;20056;-81
2024/02/13 17:24:27;;;;;;;3.55;1.67;;;;;;;;;;6207885;28;20047;-81
2024/02/13 17:27:29;;;;;;;2.90;1.60;;;;;;;;;;6212813;28;20204;-79
2024/02/13 17:30:31;;;;;;;3.90;2.40;;;;;;;;;;6204354;28;20057;-79
2024/02/13 17:33:33;;;;;;;3.53;2.20;;;;;;;;;;6201041;28;20532;-78
2024/02/13 17:36:35;;;;;;;3.20;2.20;;;;;;;;;;6203042;28;20061;-78
2024/02/13 17:39:36;;;;;;;4.00;1.60;;;;;;;;;;6194933;28;20049;-80
2024/02/13 17:42:38;;;;;;;1.95;1.67;;;;;;;;;;6195312;28;20049;-80
2024/02/13 17:45:40;;;;;;;3.00;1.95;;;;;;;;;;6202723;28;20149;-78
2024/02/13 17:48:42;;;;;;;4.45;3.20;;;;;;;;;;6199855;28;20503;-81
2024/02/13 17:51:44;;;;;;;5.20;3.42;;;;;;;;;;6218648;28;20726;-79
2024/02/13 17:54:45;;;;;;;3.72;2.50;;;;;;;;;;6195080;28;20057;-79
2024/02/13 17:57:47;;;;;;;6.07;2.58;;;;;;;;;;6199240;28;20049;-79
2024/02/13 18:00:49;;;;;;;5.00;2.75;;;;;;;;;;6201431;28;20046;-81
2024/02/13 18:03:51;;;;;;;5.95;3.20;;;;;;;;;;6200449;28;20056;-79
2024/02/13 18:06:53;;;;;;;12.52;2.75;;;;;;;;;;6192269;28;20044;-81
2024/02/13 18:09:55;;;;;;;4.68;2.83;;;;;;;;;;6200049;28;20046;-82
2024/02/13 18:12:58;;;;;;;5.38;2.90;;;;;;;;;;6215714;28;20038;-79
2024/02/13 18:16:00;;;;;;;6.22;2.88;;;;;;;;;;6198655;28;20049;-80
2024/02/13 18:19:05;;;;;;;5.85;4.07;;;;;;;;;;6197750;28;20053;-79
2024/02/13 18:22:07;;;;;;;3.80;2.75;;;;;;;;;;6199852;28;20069;-78